Airport View

Enter AWOS ICAO identifier for current METAR.

ex. KFNL

KJNX 120545Z AUTO 00000KT 10SM CLR 00/00 A3054 RMK AO2

12 Dec 2019 05:40

Frequency: 120.225

Phone: 919-934-3851

Other Area AWOS: KHRJ - KGWW - KGSB - KRDU

TAF KGSB 112100Z 1121/1303 33006KT 9999 FBKN200 QNH3038INS BECMG 1201/1202 35006KT 9999 SKC QNH3039INS BECMG 1217/1218 06009KT 9999 SCT030 QNH3050INS TX08/1122Z TNM02/1210Z